^^
Saratoga-Weather Station Historical Data
Daily Summary for August 29, 2020 Units:  Metric    English   Both
Daily Weekly Monthly Yearly Custom
  High: Low: Average:
Temperature: 22.4 °C 14.2 °C 18.1 °C
Dew Point: 15.5 °C 8.9 °C 12.1 °C
Humidity: 92% 44% 70%
Wind Speed: 22.7km/h 0km/h 5.1km/h
Wind Gust: 29km/h - -
Wind- - WSW
Pressure: 1014.6 hPa 1012.2 hPa -
Precipitation: 0.0 mm    
Historical Graphs
 
 
Tabular Data for August 29, 2020
Time Temperature Dew Point Pressure Wind Wind Speed Wind Gust Humidity Rainfall Rate (Hourly) solar
00:00 15.3 °C 13 °C 1014.6 hPa South 3.2 km/h 6.4 km/h 86% 0.0 mm 0 W/m2
00:05 15.2 °C 12.9 °C 1014.6 hPa Calm   1.6 km/h 86% 0.0 mm 0 W/m2
00:10 15.2 °C 13 °C 1014.6 hPa Calm   4.8 km/h 87% 0.0 mm 0 W/m2
00:15 15.1 °C 13 °C 1014.6 hPa Calm   1.6 km/h 87% 0.0 mm 0 W/m2
00:20 15 °C 12.9 °C 1014.2 hPa NNW 1.4 km/h 3.2 km/h 87% 0.0 mm 0 W/m2
00:26 14.9 °C 12.9 °C 1014.6 hPa Calm   1.6 km/h 88% 0.0 mm 0 W/m2
00:31 14.9 °C 12.9 °C 1014.2 hPa NNE 3.2 km/h 6.4 km/h 88% 0.0 mm 0 W/m2
00:36 14.9 °C 12.9 °C 1014.2 hPa NNW 1.4 km/h 1.6 km/h 88% 0.0 mm 0 W/m2
00:41 14.9 °C 12.9 °C 1014.2 hPa West 3.2 km/h 6.4 km/h 88% 0.0 mm 0 W/m2
00:46 14.8 °C 12.8 °C 1014.2 hPa Calm   3.2 km/h 88% 0.0 mm 0 W/m2
00:51 14.8 °C 12.8 °C 1014.2 hPa NW 3.2 km/h 9.7 km/h 88% 0.0 mm 0 W/m2
00:56 14.8 °C 13 °C 1014.2 hPa North 3.2 km/h 9.7 km/h 89% 0.0 mm 0 W/m2
01:01 14.8 °C 13 °C 1014.2 hPa NNE 3.2 km/h 4.8 km/h 89% 0.0 mm 0 W/m2
01:06 14.8 °C 12.8 °C 1014.2 hPa Calm   8 km/h 88% 0.0 mm 0 W/m2
01:11 14.8 °C 13 °C 1014.2 hPa NNW 3.2 km/h 4.8 km/h 89% 0.0 mm 0 W/m2
01:16 14.8 °C 13 °C 1014.6 hPa Calm   1.6 km/h 89% 0.0 mm 0 W/m2
01:21 14.7 °C 12.9 °C 1014.2 hPa Calm   1.6 km/h 89% 0.0 mm 0 W/m2
01:31 14.7 °C 12.9 °C 1014.6 hPa WNW 1.4 km/h 4.8 km/h 89% 0.0 mm 0 W/m2
01:37 14.7 °C 12.9 °C 1014.2 hPa SSE 6.4 km/h 6.4 km/h 89% 0.0 mm 0 W/m2
01:42 14.6 °C 12.8 °C 1014.2 hPa Calm   1.6 km/h 89% 0.0 mm 0 W/m2
01:47 14.6 °C 13 °C 1014.2 hPa Calm   4.8 km/h 90% 0.0 mm 0 W/m2
01:52 14.6 °C 13 °C 1014.2 hPa SSE 1.4 km/h 4.8 km/h 90% 0.0 mm 0 W/m2
01:57 14.5 °C 12.9 °C 1014.2 hPa ESE 3.2 km/h 3.2 km/h 90% 0.0 mm 0 W/m2
02:02 14.5 °C 12.9 °C 1014.2 hPa Calm   3.2 km/h 90% 0.0 mm 0 W/m2
02:07 14.4 °C 12.8 °C 1014.2 hPa East 3.2 km/h 3.2 km/h 90% 0.0 mm 0 W/m2
02:12 14.4 °C 12.8 °C 1013.9 hPa Calm     90% 0.0 mm 0 W/m2
02:17 14.3 °C 12.9 °C 1014.2 hPa ENE 3.2 km/h 3.2 km/h 91% 0.0 mm 0 W/m2
02:22 14.3 °C 12.9 °C 1014.2 hPa ENE 3.2 km/h 4.8 km/h 91% 0.0 mm 0 W/m2
02:27 14.3 °C 12.9 °C 1013.9 hPa ENE 3.2 km/h 3.2 km/h 91% 0.0 mm 0 W/m2
02:32 14.3 °C 12.9 °C 1013.9 hPa East 1.4 km/h 1.6 km/h 91% 0.0 mm 0 W/m2
02:37 14.2 °C 12.8 °C 1013.9 hPa Calm   3.2 km/h 91% 0.0 mm 0 W/m2
02:42 14.2 °C 12.8 °C 1013.9 hPa Calm   1.6 km/h 91% 0.0 mm 0 W/m2
02:47 14.2 °C 12.8 °C 1013.9 hPa East 1.4 km/h 1.6 km/h 91% 0.0 mm 0 W/m2
02:52 14.2 °C 12.8 °C 1013.9 hPa Calm   1.6 km/h 91% 0.0 mm 0 W/m2
02:57 14.2 °C 12.9 °C 1013.9 hPa Calm   3.2 km/h 92% 0.0 mm 0 W/m2
03:02 14.2 °C 12.9 °C 1013.9 hPa NW 1.4 km/h 1.6 km/h 92% 0.0 mm 0 W/m2
03:07 14.3 °C 13 °C 1014.2 hPa Calm   1.6 km/h 92% 0.0 mm 0 W/m2
03:12 14.3 °C 13 °C 1014.2 hPa NW 1.4 km/h 3.2 km/h 92% 0.0 mm 0 W/m2
03:17 14.4 °C 12.9 °C 1013.9 hPa NW 3.2 km/h 4.8 km/h 91% 0.0 mm 0 W/m2
03:22 14.4 °C 12.9 °C 1013.9 hPa West 6.4 km/h 6.4 km/h 91% 0.0 mm 0 W/m2
03:27 14.4 °C 12.9 °C 1013.9 hPa Calm   1.6 km/h 91% 0.0 mm 0 W/m2
03:32 14.4 °C 12.9 °C 1013.9 hPa NE 3.2 km/h 4.8 km/h 91% 0.0 mm 0 W/m2
03:37 14.4 °C 12.9 °C 1013.9 hPa Calm   4.8 km/h 91% 0.0 mm 0 W/m2
03:42 14.4 °C 13.1 °C 1013.9 hPa NNW 1.4 km/h 3.2 km/h 92% 0.0 mm 0 W/m2
03:47 14.5 °C 13 °C 1013.9 hPa Calm   3.2 km/h 91% 0.0 mm 0 W/m2
03:53 14.5 °C 13 °C 1013.9 hPa WNW 1.4 km/h 4.8 km/h 91% 0.0 mm 0 W/m2
03:58 14.6 °C 13.3 °C 1013.9 hPa NNW 1.4 km/h 4.8 km/h 92% 0.0 mm 0 W/m2
04:03 14.6 °C 13.1 °C 1013.9 hPa WNW 3.2 km/h 3.2 km/h 91% 0.0 mm 0 W/m2
04:08 14.6 °C 13.1 °C 1013.9 hPa Calm   4.8 km/h 91% 0.0 mm 0 W/m2
04:13 14.6 °C 13.1 °C 1013.5 hPa SW 6.4 km/h 8 km/h 91% 0.0 mm 0 W/m2
04:18 14.6 °C 13.1 °C 1013.5 hPa Calm   1.6 km/h 91% 0.0 mm 0 W/m2
04:23 14.6 °C 13.1 °C 1013.5 hPa SSE 1.4 km/h 3.2 km/h 91% 0.0 mm 0 W/m2
04:28 14.6 °C 13.1 °C 1013.5 hPa Calm     91% 0.0 mm 0 W/m2
04:33 14.6 °C 13.1 °C 1013.5 hPa SSW 1.4 km/h 3.2 km/h 91% 0.0 mm 0 W/m2
04:38 14.6 °C 13.1 °C 1013.2 hPa Calm   3.2 km/h 91% 0.0 mm 0 W/m2
04:43 14.6 °C 13.1 °C 1013.2 hPa West 4.7 km/h 4.8 km/h 91% 0.0 mm 0 W/m2
04:48 14.6 °C 13.1 °C 1013.5 hPa Calm   1.6 km/h 91% 0.0 mm 0 W/m2
04:53 14.7 °C 13.2 °C 1013.2 hPa North 1.4 km/h 4.8 km/h 91% 0.0 mm 0 W/m2
04:58 14.7 °C 13.2 °C 1013.2 hPa Calm   3.2 km/h 91% 0.0 mm 0 W/m2
05:03 14.7 °C 13.2 °C 1012.9 hPa North 1.4 km/h 3.2 km/h 91% 0.0 mm 0 W/m2
05:08 14.8 °C 13.3 °C 1012.9 hPa North 3.2 km/h 4.8 km/h 91% 0.0 mm 0 W/m2
05:13 14.8 °C 13.3 °C 1012.9 hPa NNW 1.4 km/h 1.6 km/h 91% 0.0 mm 0 W/m2
05:18 14.8 °C 13.3 °C 1012.9 hPa Calm   1.6 km/h 91% 0.0 mm 0 W/m2
05:23 14.8 °C 13.3 °C 1012.9 hPa Calm   4.8 km/h 91% 0.0 mm 0 W/m2
05:33 14.8 °C 13.3 °C 1012.5 hPa WSW 3.2 km/h 3.2 km/h 91% 0.0 mm 0 W/m2
05:38 14.7 °C 13.2 °C 1012.5 hPa NNE 1.4 km/h 3.2 km/h 91% 0.0 mm 0 W/m2
05:43 14.7 °C 13.2 °C 1012.5 hPa Calm     91% 0.0 mm 0 W/m2
05:48 14.7 °C 13.2 °C 1012.5 hPa Calm   3.2 km/h 91% 0.0 mm 0 W/m2
05:53 14.6 °C 13.1 °C 1012.9 hPa ESE 3.2 km/h 3.2 km/h 91% 0.0 mm 0 W/m2
05:58 14.6 °C 13.3 °C 1012.5 hPa ENE 1.4 km/h 4.8 km/h 92% 0.0 mm 0 W/m2
06:03 14.6 °C 13.3 °C 1012.9 hPa Calm   1.6 km/h 92% 0.0 mm 7 W/m2
06:08 14.6 °C 13.3 °C 1012.5 hPa Calm     92% 0.0 mm 11 W/m2
06:13 14.6 °C 13.3 °C 1012.5 hPa Calm   3.2 km/h 92% 0.0 mm 14 W/m2
06:18 14.7 °C 13.4 °C 1012.5 hPa SE 3.2 km/h 3.2 km/h 92% 0.0 mm 16 W/m2
06:23 14.7 °C 13.4 °C 1012.9 hPa Calm     92% 0.0 mm 18 W/m2
06:28 14.8 °C 13.5 °C 1012.9 hPa SW 1.4 km/h 1.6 km/h 92% 0.0 mm 21 W/m2
06:33 14.8 °C 13.5 °C 1012.9 hPa WNW 3.2 km/h 3.2 km/h 92% 0.0 mm 25 W/m2
06:38 14.9 °C 13.6 °C 1012.9 hPa Calm   1.6 km/h 92% 0.0 mm 21 W/m2
06:43 15 °C 13.7 °C 1012.9 hPa WSW 3.2 km/h 4.8 km/h 92% 0.0 mm 21 W/m2
06:48 15.1 °C 13.6 °C 1012.9 hPa NW 3.2 km/h 3.2 km/h 91% 0.0 mm 25 W/m2
06:53 15.1 °C 13.6 °C 1012.9 hPa Calm   6.4 km/h 91% 0.0 mm 35 W/m2
06:58 15.2 °C 13.7 °C 1012.9 hPa NNE 1.4 km/h 3.2 km/h 91% 0.0 mm 32 W/m2
07:03 15.2 °C 13.7 °C 1012.9 hPa Calm   6.4 km/h 91% 0.0 mm 25 W/m2
07:08 15.3 °C 13.8 °C 1012.9 hPa WSW 1.4 km/h 3.2 km/h 91% 0.0 mm 28 W/m2
07:13 15.3 °C 13.8 °C 1012.9 hPa West 1.4 km/h 3.2 km/h 91% 0.0 mm 53 W/m2
07:18 15.3 °C 13.7 °C 1012.5 hPa North 1.4 km/h 3.2 km/h 90% 0.0 mm 63 W/m2
07:23 15.4 °C 13.8 °C 1012.9 hPa NE 1.4 km/h 6.4 km/h 90% 0.0 mm 70 W/m2
07:28 15.5 °C 13.9 °C 1012.9 hPa North 3.2 km/h 3.2 km/h 90% 0.0 mm 69 W/m2
07:33 15.5 °C 13.9 °C 1012.9 hPa NNW 3.2 km/h 4.8 km/h 90% 0.0 mm 86 W/m2
07:38 15.6 °C 14 °C 1012.9 hPa NE 1.4 km/h 6.4 km/h 90% 0.0 mm 81 W/m2
07:43 15.6 °C 14 °C 1012.9 hPa Calm   3.2 km/h 90% 0.0 mm 56 W/m2
07:48 15.7 °C 14.1 °C 1012.9 hPa NNE 1.4 km/h 6.4 km/h 90% 0.0 mm 260 W/m2
07:53 15.8 °C 14.2 °C 1012.9 hPa NW 3.2 km/h 11.3 km/h 90% 0.0 mm 255 W/m2
07:58 16 °C 14.2 °C 1012.9 hPa North 7.9 km/h 8 km/h 89% 0.0 mm 186 W/m2
08:03 16.2 °C 14.2 °C 1012.9 hPa NNW 3.2 km/h 4.8 km/h 88% 0.0 mm 156 W/m2
08:08 16.2 °C 14 °C 1012.9 hPa West 4.7 km/h 12.9 km/h 87% 0.0 mm 197 W/m2
08:13 16.3 °C 14.1 °C 1012.9 hPa West 9.7 km/h 9.7 km/h 87% 0.0 mm 160 W/m2
08:18 16.3 °C 14.1 °C 1012.9 hPa West 4.7 km/h 11.3 km/h 87% 0.0 mm 160 W/m2
08:23 16.4 °C 14.2 °C 1012.9 hPa SSW 4.7 km/h 9.7 km/h 87% 0.0 mm 236 W/m2
08:28 16.5 °C 14.3 °C 1012.9 hPa North 1.4 km/h 11.3 km/h 87% 0.0 mm 149 W/m2
08:33 16.7 °C 14.3 °C 1012.9 hPa NW 1.4 km/h 4.8 km/h 86% 0.0 mm 236 W/m2
08:38 16.9 °C 14.5 °C 1012.9 hPa WNW 6.4 km/h 6.4 km/h 86% 0.0 mm 130 W/m2
08:43 16.9 °C 14.4 °C 1012.9 hPa SW 1.4 km/h 9.7 km/h 85% 0.0 mm 120 W/m2
08:48 16.9 °C 14.4 °C 1012.9 hPa WSW 4.7 km/h 11.3 km/h 85% 0.0 mm 181 W/m2
08:53 16.9 °C 14.4 °C 1012.9 hPa NW 7.9 km/h 8 km/h 85% 0.0 mm 186 W/m2
08:58 17.2 °C 14.7 °C 1013.2 hPa West 9.7 km/h 9.7 km/h 85% 0.0 mm 216 W/m2
09:03 17.3 °C 14.6 °C 1012.9 hPa WNW 7.9 km/h 8 km/h 84% 0.0 mm 125 W/m2
09:08 17.3 °C 14.4 °C 1012.9 hPa NW 3.2 km/h 4.8 km/h 83% 0.0 mm 58 W/m2
09:13 17.3 °C 14.4 °C 1013.2 hPa NW 3.2 km/h 8 km/h 83% 0.0 mm 104 W/m2
09:18 17.1 °C 14.4 °C 1013.2 hPa NNE 4.7 km/h 9.7 km/h 84% 0.0 mm 46 W/m2
09:23 16.9 °C 14.5 °C 1013.2 hPa NNW 1.4 km/h 3.2 km/h 86% 0.0 mm 127 W/m2
09:28 17.2 °C 15.2 °C 1012.9 hPa NNW 1.4 km/h 3.2 km/h 88% 0.0 mm 568 W/m2
09:38 17.8 °C 15.4 °C 1013.2 hPa WNW 3.2 km/h 6.4 km/h 86% 0.0 mm 197 W/m2
09:43 18.2 °C 15.5 °C 1013.2 hPa West 4.7 km/h 14.5 km/h 84% 0.0 mm 666 W/m2
09:48 18.3 °C 15.4 °C 1013.2 hPa WNW 7.9 km/h 11.3 km/h 83% 0.0 mm 501 W/m2
09:53 18.3 °C 15.2 °C 1013.2 hPa WNW 1.4 km/h 9.7 km/h 82% 0.0 mm 172 W/m2
09:58 18.2 °C 14.9 °C 1013.2 hPa West 4.7 km/h 9.7 km/h 81% 0.0 mm 86 W/m2
10:03 17.9 °C 14.6 °C 1013.2 hPa WNW 3.2 km/h 9.7 km/h 81% 0.0 mm 656 W/m2
10:08 18.1 °C 15 °C 1012.9 hPa NW 6.4 km/h 11.3 km/h 82% 0.0 mm 712 W/m2
10:13 18.5 °C 14.8 °C 1012.9 hPa NNW 1.4 km/h 17.7 km/h 79% 0.0 mm 260 W/m2
10:18 18.8 °C 15.1 °C 1013.2 hPa WSW 4.7 km/h 9.7 km/h 79% 0.0 mm 246 W/m2
10:23 18.7 °C 14.6 °C 1013.2 hPa WNW 6.4 km/h 9.7 km/h 77% 0.0 mm 151 W/m2
10:28 18.3 °C 14.2 °C 1013.2 hPa WSW 6.4 km/h 6.4 km/h 77% 0.0 mm 88 W/m2
10:33 18.1 °C 14.2 °C 1013.2 hPa WSW 1.4 km/h 9.7 km/h 78% 0.0 mm 86 W/m2
10:38 18.3 °C 14.6 °C 1013.2 hPa WNW 3.2 km/h 4.8 km/h 79% 0.0 mm 805 W/m2
10:43 18.7 °C 14.6 °C 1013.2 hPa NNE 1.4 km/h 8 km/h 77% 0.0 mm 921 W/m2
10:48 19.2 °C 14.5 °C 1012.9 hPa WNW 4.7 km/h 11.3 km/h 74% 0.0 mm 279 W/m2
10:53 19.6 °C 14.4 °C 1012.9 hPa WSW 7.9 km/h 17.7 km/h 72% 0.0 mm 756 W/m2
10:58 19.7 °C 14.3 °C 1012.9 hPa NW 3.2 km/h 9.7 km/h 71% 0.0 mm 816 W/m2
11:03 20 °C 15 °C 1013.2 hPa WSW 9.7 km/h 17.7 km/h 73% 0.0 mm 895 W/m2
11:08 19.8 °C 14.4 °C 1013.2 hPa WNW 17.7 km/h 19.3 km/h 71% 0.0 mm 72 W/m2
11:13 19.2 °C 14.2 °C 1013.2 hPa West 14.3 km/h 14.5 km/h 73% 0.0 mm 816 W/m2
11:18 19.4 °C 14.4 °C 1013.2 hPa West 6.4 km/h 8 km/h 73% 0.0 mm 856 W/m2
11:23 19.9 °C 14.5 °C 1013.2 hPa West 11.1 km/h 17.7 km/h 71% 0.0 mm 846 W/m2
11:29 20 °C 13.9 °C 1013.2 hPa WSW 4.7 km/h 11.3 km/h 68% 0.0 mm 926 W/m2
11:34 20 °C 13.7 °C 1013.2 hPa SW 9.7 km/h 11.3 km/h 67% 0.0 mm 165 W/m2
11:39 20.1 °C 13.5 °C 1013.2 hPa WNW 4.7 km/h 11.3 km/h 66% 0.0 mm 886 W/m2
11:44 20.1 °C 13.5 °C 1013.2 hPa North 6.4 km/h 11.3 km/h 66% 0.0 mm 1046 W/m2
11:49 20.2 °C 13.4 °C 1013.2 hPa WSW 11.1 km/h 12.9 km/h 65% 0.0 mm 1109 W/m2
11:54 20.2 °C 13.6 °C 1013.2 hPa SW 6.4 km/h 11.3 km/h 66% 0.0 mm 258 W/m2
11:59 20.1 °C 13.8 °C 1013.2 hPa WSW 3.2 km/h 16.1 km/h 67% 0.0 mm 942 W/m2
12:04 20.2 °C 14.1 °C 1013.2 hPa NE 4.7 km/h 6.4 km/h 68% 0.0 mm 874 W/m2
12:09 20.7 °C 14.1 °C 1013.2 hPa West 4.7 km/h 9.7 km/h 66% 0.0 mm 847 W/m2
12:14 20.7 °C 13.4 °C 1013.2 hPa NW 13 km/h 19.3 km/h 63% 0.0 mm 898 W/m2
12:19 20.7 °C 13.2 °C 1013.2 hPa West 9.7 km/h 11.3 km/h 62% 0.0 mm 1051 W/m2
12:24 20.4 °C 13.4 °C 1013.2 hPa West 9.7 km/h 19.3 km/h 64% 0.0 mm 162 W/m2
12:29 20.5 °C 13.2 °C 1013.2 hPa WNW 14.3 km/h 16.1 km/h 63% 0.0 mm 1051 W/m2
12:34 20.8 °C 13.5 °C 1013.2 hPa WSW 6.4 km/h 17.7 km/h 63% 0.0 mm 970 W/m2
12:39 21.1 °C 13.3 °C 1013.2 hPa West 4.7 km/h 14.5 km/h 61% 0.0 mm 1055 W/m2
12:44 21.4 °C 13.6 °C 1013.2 hPa NW 6.4 km/h 14.5 km/h 61% 0.0 mm 1056 W/m2
12:49 21.6 °C 13.2 °C 1013.2 hPa WNW 7.9 km/h 14.5 km/h 59% 0.0 mm 1025 W/m2
12:54 21.3 °C 13.2 °C 1013.2 hPa West 14.3 km/h 16.1 km/h 60% 0.0 mm 135 W/m2
12:59 20.9 °C 13.1 °C 1013.2 hPa WSW 7.9 km/h 17.7 km/h 61% 0.0 mm 937 W/m2
13:04 21 °C 12.9 °C 1013.2 hPa SW 6.4 km/h 8 km/h 60% 0.0 mm 1014 W/m2
13:09 21.2 °C 13.1 °C 1013.2 hPa West 6.4 km/h 14.5 km/h 60% 0.0 mm 1125 W/m2
13:14 21.3 °C 13.2 °C 1013.2 hPa WNW 13 km/h 25.7 km/h 60% 0.0 mm 984 W/m2
13:19 21.3 °C 12.7 °C 1013.2 hPa SW 7.9 km/h 16.1 km/h 58% 0.0 mm 947 W/m2
13:24 21.3 °C 12.7 °C 1013.2 hPa WNW 6.4 km/h 25.7 km/h 58% 0.0 mm 264 W/m2
13:29 21.2 °C 12.6 °C 1013.2 hPa West 11.1 km/h 14.5 km/h 58% 0.0 mm 132 W/m2
13:34 21.2 °C 12.6 °C 1013.2 hPa WNW 11.1 km/h 16.1 km/h 58% 0.0 mm 963 W/m2
13:39 21.7 °C 13.1 °C 1013.2 hPa NNW 4.7 km/h 16.1 km/h 58% 0.0 mm 947 W/m2
13:44 21.7 °C 12.8 °C 1013.2 hPa WSW 11.1 km/h 16.1 km/h 57% 0.0 mm 958 W/m2
13:49 21.7 °C 12.8 °C 1013.2 hPa SW 11.1 km/h 17.7 km/h 57% 0.0 mm 995 W/m2
13:54 21.8 °C 12.6 °C 1012.9 hPa NNW 7.9 km/h 16.1 km/h 56% 0.0 mm 942 W/m2
13:59 21.9 °C 12.2 °C 1012.9 hPa North 3.2 km/h 24.1 km/h 54% 0.0 mm 1005 W/m2
14:04 21.8 °C 12.4 °C 1012.9 hPa NW 7.9 km/h 16.1 km/h 55% 0.0 mm 976 W/m2
14:09 21.6 °C 11.9 °C 1012.9 hPa West 13 km/h 19.3 km/h 54% 0.0 mm 158 W/m2
14:14 21.6 °C 12.2 °C 1012.9 hPa WSW 11.1 km/h 16.1 km/h 55% 0.0 mm 947 W/m2
14:19 21.8 °C 12.1 °C 1012.9 hPa WNW 19.5 km/h 25.7 km/h 54% 0.0 mm 930 W/m2
14:24 22 °C 11.7 °C 1012.9 hPa WNW 13 km/h 16.1 km/h 52% 0.0 mm 1021 W/m2
14:29 22.1 °C 11.5 °C 1012.9 hPa WNW 7.9 km/h 17.7 km/h 51% 0.0 mm 279 W/m2
14:34 22 °C 11.4 °C 1012.9 hPa WNW 20.9 km/h 20.9 km/h 51% 0.0 mm 983 W/m2
14:39 21.8 °C 10.6 °C 1012.9 hPa WNW 17.7 km/h 22.5 km/h 49% 0.0 mm 933 W/m2
14:44 22.1 °C 11.2 °C 1012.9 hPa WNW 17.7 km/h 17.7 km/h 50% 0.0 mm 939 W/m2
14:49 22.2 °C 11 °C 1012.5 hPa WNW 11.1 km/h 17.7 km/h 49% 0.0 mm 969 W/m2
14:54 22.3 °C 11.1 °C 1012.5 hPa West 11.1 km/h 16.1 km/h 49% 0.0 mm 923 W/m2
14:59 22.1 °C 10.6 °C 1012.5 hPa WNW 11.1 km/h 25.7 km/h 48% 0.0 mm 926 W/m2
15:04 22.2 °C 11 °C 1012.5 hPa WSW 7.9 km/h 17.7 km/h 49% 0.0 mm 935 W/m2
15:09 22.3 °C 10.4 °C 1012.5 hPa West 11.1 km/h 24.1 km/h 47% 0.0 mm 954 W/m2
15:19 22.1 °C 10.6 °C 1012.5 hPa SW 11.1 km/h 19.3 km/h 48% 0.0 mm 951 W/m2
15:24 21.9 °C 10.4 °C 1012.5 hPa West 6.4 km/h 27.4 km/h 48% 0.0 mm 153 W/m2
15:29 21.8 °C 10.9 °C 1012.5 hPa West 4.7 km/h 17.7 km/h 50% 0.0 mm 241 W/m2
15:34 22.1 °C 10.6 °C 1012.5 hPa NW 6.4 km/h 11.3 km/h 48% 0.0 mm 870 W/m2
15:39 22.2 °C 10.4 °C 1012.5 hPa West 13 km/h 16.1 km/h 47% 0.0 mm 925 W/m2
15:44 22.1 °C 10.6 °C 1012.5 hPa WSW 4.7 km/h 14.5 km/h 48% 0.0 mm 230 W/m2
15:49 22.1 °C 10.6 °C 1012.5 hPa WSW 3.2 km/h 14.5 km/h 48% 0.0 mm 937 W/m2
15:54 21.9 °C 10.1 °C 1012.5 hPa WSW 13 km/h 17.7 km/h 47% 0.0 mm 921 W/m2
15:59 22 °C 9.8 °C 1012.5 hPa West 14.3 km/h 27.4 km/h 46% 0.0 mm 905 W/m2
16:04 22 °C 9.8 °C 1012.9 hPa North 9.7 km/h 16.1 km/h 46% 0.0 mm 842 W/m2
16:09 22 °C 9.8 °C 1012.5 hPa WNW 11.1 km/h 29 km/h 46% 0.0 mm 846 W/m2
16:14 21.9 °C 10.1 °C 1012.5 hPa WNW 14.3 km/h 14.5 km/h 47% 0.0 mm 853 W/m2
16:19 22.2 °C 10.4 °C 1012.5 hPa WNW 11.1 km/h 14.5 km/h 47% 0.0 mm 823 W/m2
16:24 22.3 °C 9.8 °C 1012.5 hPa WNW 11.1 km/h 12.9 km/h 45% 0.0 mm 860 W/m2
16:29 22.4 °C 10.2 °C 1012.5 hPa SW 11.1 km/h 16.1 km/h 46% 0.0 mm 828 W/m2
16:34 22.3 °C 9.8 °C 1012.5 hPa WNW 7.9 km/h 22.5 km/h 45% 0.0 mm 756 W/m2
16:39 22.4 °C 9.9 °C 1012.5 hPa WSW 11.1 km/h 11.3 km/h 45% 0.0 mm 833 W/m2
16:44 22.4 °C 10.2 °C 1012.5 hPa West 4.7 km/h 16.1 km/h 46% 0.0 mm 631 W/m2
16:49 22.4 °C 9.5 °C 1012.5 hPa NNW 13 km/h 17.7 km/h 44% 0.0 mm 770 W/m2
16:54 22.2 °C 9.7 °C 1012.5 hPa WNW 7.9 km/h 24.1 km/h 45% 0.0 mm 160 W/m2
16:59 21.9 °C 9.8 °C 1012.5 hPa NW 11.1 km/h 16.1 km/h 46% 0.0 mm 311 W/m2
17:04 21.6 °C 9.5 °C 1012.5 hPa West 9.7 km/h 24.1 km/h 46% 0.0 mm 209 W/m2
17:09 21.4 °C 9.6 °C 1012.5 hPa West 6.4 km/h 16.1 km/h 47% 0.0 mm 176 W/m2
17:14 21.8 °C 10.3 °C 1012.5 hPa West 4.7 km/h 16.1 km/h 48% 0.0 mm 717 W/m2
17:19 21.9 °C 10.1 °C 1012.2 hPa West 20.9 km/h 20.9 km/h 47% 0.0 mm 717 W/m2
17:24 22.1 °C 10.3 °C 1012.2 hPa NW 7.9 km/h 17.7 km/h 47% 0.0 mm 677 W/m2
17:34 21.8 °C 10.3 °C 1012.5 hPa WNW 11.1 km/h 19.3 km/h 48% 0.0 mm 703 W/m2
17:39 21.9 °C 10.4 °C 1012.5 hPa West 13 km/h 16.1 km/h 48% 0.0 mm 647 W/m2
17:44 22.2 °C 10.4 °C 1012.5 hPa WSW 6.4 km/h 14.5 km/h 47% 0.0 mm 631 W/m2
17:49 21.8 °C 10 °C 1012.5 hPa NW 6.4 km/h 11.3 km/h 47% 0.0 mm 162 W/m2
17:54 21.7 °C 10.8 °C 1012.5 hPa West 9.7 km/h 14.5 km/h 50% 0.0 mm 701 W/m2
17:59 21.9 °C 10.4 °C 1012.5 hPa WNW 14.3 km/h 16.1 km/h 48% 0.0 mm 622 W/m2
18:04 21.7 °C 10.2 °C 1012.5 hPa WSW 22.7 km/h 25.7 km/h 48% 0.0 mm 97 W/m2
18:09 21.3 °C 9.8 °C 1012.5 hPa NW 4.7 km/h 14.5 km/h 48% 0.0 mm 643 W/m2
18:14 21.6 °C 10.4 °C 1012.2 hPa WNW 9.7 km/h 9.7 km/h 49% 0.0 mm 589 W/m2
18:19 21.7 °C 10.2 °C 1012.2 hPa NNW 9.7 km/h 12.9 km/h 48% 0.0 mm 223 W/m2
18:24 21.5 °C 10 °C 1012.2 hPa NW 4.7 km/h 12.9 km/h 48% 0.0 mm 123 W/m2
18:29 21.3 °C 10.2 °C 1012.2 hPa West 4.7 km/h 9.7 km/h 49% 0.0 mm 153 W/m2
18:35 21.2 °C 9.8 °C 1012.5 hPa WSW 6.4 km/h 19.3 km/h 48% 0.0 mm 128 W/m2
18:40 21 °C 9.6 °C 1012.5 hPa West 4.7 km/h 11.3 km/h 48% 0.0 mm 77 W/m2
18:45 20.8 °C 10 °C 1012.5 hPa WNW 11.1 km/h 14.5 km/h 50% 0.0 mm 374 W/m2
18:50 20.7 °C 9.6 °C 1012.5 hPa West 11.1 km/h 14.5 km/h 49% 0.0 mm 234 W/m2
18:55 20.7 °C 9.9 °C 1012.5 hPa SW 6.4 km/h 14.5 km/h 50% 0.0 mm 148 W/m2
19:00 20.9 °C 10.1 °C 1012.2 hPa West 4.7 km/h 16.1 km/h 50% 0.0 mm 192 W/m2
19:05 20.8 °C 9.7 °C 1012.5 hPa West 11.1 km/h 14.5 km/h 49% 0.0 mm 62 W/m2
19:10 20.6 °C 9.5 °C 1012.5 hPa WNW 4.7 km/h 11.3 km/h 49% 0.0 mm 121 W/m2
19:15 20.8 °C 9.4 °C 1012.2 hPa West 11.1 km/h 17.7 km/h 48% 0.0 mm 355 W/m2
19:20 21 °C 9.6 °C 1012.2 hPa West 4.7 km/h 9.7 km/h 48% 0.0 mm 51 W/m2
19:25 20.9 °C 9.2 °C 1012.5 hPa West 6.4 km/h 17.7 km/h 47% 0.0 mm 54 W/m2
19:30 20.6 °C 9.2 °C 1012.5 hPa WNW 4.7 km/h 8 km/h 48% 0.0 mm 102 W/m2
19:35 20.6 °C 9.2 °C 1012.5 hPa WNW 13 km/h 16.1 km/h 48% 0.0 mm 322 W/m2
19:40 20.8 °C 9.4 °C 1012.5 hPa WNW 6.4 km/h 12.9 km/h 48% 0.0 mm 276 W/m2
19:45 21 °C 9.6 °C 1012.5 hPa WSW 6.4 km/h 16.1 km/h 48% 0.0 mm 199 W/m2
19:50 21.1 °C 10 °C 1012.5 hPa West 9.7 km/h 11.3 km/h 49% 0.0 mm 39 W/m2
19:55 20.7 °C 9.6 °C 1012.5 hPa West 6.4 km/h 11.3 km/h 49% 0.0 mm 67 W/m2
20:00 20.3 °C 9.2 °C 1012.2 hPa West 4.7 km/h 14.5 km/h 49% 0.0 mm 39 W/m2
20:05 20.3 °C 9.5 °C 1012.2 hPa West 4.7 km/h 11.3 km/h 50% 0.0 mm 181 W/m2
20:10 20.4 °C 9.3 °C 1012.2 hPa West 6.4 km/h 9.7 km/h 49% 0.0 mm 160 W/m2
20:15 20.6 °C 9.2 °C 1012.2 hPa West 6.4 km/h 12.9 km/h 48% 0.0 mm 146 W/m2
20:20 20.6 °C 8.9 °C 1012.2 hPa WNW 14.3 km/h 17.7 km/h 47% 0.0 mm 132 W/m2
20:25 20.5 °C 9.1 °C 1012.2 hPa WSW 7.9 km/h 11.3 km/h 48% 0.0 mm 118 W/m2
20:30 20.4 °C 9.3 °C 1012.2 hPa West 4.7 km/h 9.7 km/h 49% 0.0 mm 107 W/m2
20:35 20.3 °C 9.2 °C 1012.2 hPa West 4.7 km/h 9.7 km/h 49% 0.0 mm 88 W/m2
20:40 20.3 °C 9.5 °C 1012.2 hPa WNW 3.2 km/h 4.8 km/h 50% 0.0 mm 74 W/m2
20:45 20.3 °C 9.5 °C 1012.2 hPa West 3.2 km/h 9.7 km/h 50% 0.0 mm 70 W/m2
20:50 20.2 °C 9.4 °C 1012.2 hPa West 3.2 km/h 6.4 km/h 50% 0.0 mm 62 W/m2
20:55 19.9 °C 9.5 °C 1012.2 hPa West 3.2 km/h 8 km/h 51% 0.0 mm 54 W/m2
21:00 19.8 °C 9.7 °C 1012.2 hPa West 4.7 km/h 6.4 km/h 52% 0.0 mm 47 W/m2
21:05 19.6 °C 9.5 °C 1012.2 hPa WSW 4.7 km/h 6.4 km/h 52% 0.0 mm 39 W/m2
21:10 19.3 °C 9.5 °C 1012.2 hPa West 3.2 km/h 6.4 km/h 53% 0.0 mm 30 W/m2
21:15 19.1 °C 9.6 °C 1012.2 hPa West 3.2 km/h 6.4 km/h 54% 0.0 mm 18 W/m2
21:20 18.8 °C 9.6 °C 1012.2 hPa WSW 3.2 km/h 4.8 km/h 55% 0.0 mm 14 W/m2
21:25 18.5 °C 9.8 °C 1012.2 hPa WSW 1.4 km/h 1.6 km/h 57% 0.0 mm 12 W/m2
21:31 18.3 °C 9.6 °C 1012.2 hPa WSW 1.4 km/h 1.6 km/h 57% 0.0 mm 11 W/m2
21:36 18.1 °C 10 °C 1012.2 hPa Calm   4.8 km/h 59% 0.0 mm 7 W/m2
21:41 17.8 °C 9.7 °C 1012.5 hPa WSW 3.2 km/h 4.8 km/h 59% 0.0 mm 5 W/m2
21:46 17.6 °C 9.7 °C 1012.5 hPa WSW 1.4 km/h 4.8 km/h 60% 0.0 mm 0 W/m2
21:51 17.4 °C 9.6 °C 1012.2 hPa WNW 3.2 km/h 6.4 km/h 60% 0.0 mm 0 W/m2
21:56 17.4 °C 9.8 °C 1012.5 hPa West 1.4 km/h 4.8 km/h 61% 0.0 mm 0 W/m2
22:01 17.2 °C 9.4 °C 1012.5 hPa West 3.2 km/h 3.2 km/h 60% 0.0 mm 0 W/m2
22:06 17.2 °C 9.6 °C 1012.5 hPa West 1.4 km/h 3.2 km/h 61% 0.0 mm 0 W/m2
22:12 17.2 °C 9.6 °C 1012.5 hPa WNW 6.4 km/h 6.4 km/h 61% 0.0 mm 0 W/m2
22:17 17.1 °C 9.5 °C 1012.5 hPa WNW 6.4 km/h 8 km/h 61% 0.0 mm 0 W/m2
22:22 17.1 °C 9.5 °C 1012.5 hPa WSW 3.2 km/h 4.8 km/h 61% 0.0 mm 0 W/m2
22:27 17.1 °C 9.5 °C 1012.5 hPa WSW 3.2 km/h 6.4 km/h 61% 0.0 mm 0 W/m2
22:32 17 °C 9.7 °C 1012.5 hPa WNW 1.4 km/h 4.8 km/h 62% 0.0 mm 0 W/m2
22:37 16.9 °C 9.6 °C 1012.5 hPa WNW 3.2 km/h 6.4 km/h 62% 0.0 mm 0 W/m2
22:42 16.9 °C 9.6 °C 1012.5 hPa WSW 3.2 km/h 9.7 km/h 62% 0.0 mm 0 W/m2
22:47 16.8 °C 9.5 °C 1012.5 hPa WNW 3.2 km/h 6.4 km/h 62% 0.0 mm 0 W/m2
22:52 16.8 °C 9.7 °C 1012.5 hPa West 3.2 km/h 9.7 km/h 63% 0.0 mm 0 W/m2
22:57 16.7 °C 9.6 °C 1012.9 hPa West 1.4 km/h 3.2 km/h 63% 0.0 mm 0 W/m2
23:03 16.6 °C 9.5 °C 1012.9 hPa SW 1.4 km/h 3.2 km/h 63% 0.0 mm 0 W/m2
23:08 16.4 °C 9.6 °C 1012.9 hPa Calm   1.6 km/h 64% 0.0 mm 0 W/m2
23:13 16.2 °C 9.8 °C 1012.9 hPa Calm     66% 0.0 mm 0 W/m2
23:18 16.1 °C 10 °C 1012.9 hPa Calm     67% 0.0 mm 0 W/m2
23:23 15.9 °C 9.8 °C 1012.9 hPa Calm     67% 0.0 mm 0 W/m2
23:28 15.7 °C 9.8 °C 1012.5 hPa Calm     68% 0.0 mm 0 W/m2
23:33 15.4 °C 9.7 °C 1012.9 hPa West 1.4 km/h 3.2 km/h 69% 0.0 mm 0 W/m2
23:38 15.3 °C 9.4 °C 1012.9 hPa Calm   1.6 km/h 68% 0.0 mm 0 W/m2
23:43 15.4 °C 9.5 °C 1012.9 hPa WSW 1.4 km/h 3.2 km/h 68% 0.0 mm 0 W/m2
23:48 15.4 °C 10 °C 1012.9 hPa Calm   1.6 km/h 70% 0.0 mm 0 W/m2
23:53 15.2 °C 10 °C 1012.9 hPa West 1.4 km/h 1.6 km/h 71% 0.0 mm 0 W/m2
23:58 15.1 °C 10.1 °C 1012.9 hPa Calm   1.6 km/h 72% 0.0 mm 0 W/m2
Juneau County Weather
Compliments of Weather Underground - 4 mb